White, Minnesota
Current Conditions -  °F | °C
As of 12:31 PM on Saturday 25 Oct 2014 (Local Time) from KEVM Reporting Station
Clear Clear  
Wind Chill: 52°   Ceiling: Unl
Heat Index: 52°   Visibility: 10mi
Dew Point: 30°   Wind: 23mph
Humidity: 44%   Direction: 300°WNW
Pressure: 29.92"   Gusts: 28mph
Location:  47.4622°N, 92.1946°W
Report Text: KEVM 251731Z AUTO 30020G24KT 10SM CLR 11/M01 A2992 RMK AO2
Loading
Personal Weather Stations






























Interactive Weather Map
Tropical Storm Tracking
New forecast layout! Learn more

10-Day Weather Forecast

Advertisements
Track Severe Weather on mobile